Time;durP1;ratioP1;P1;durP2;ratioP2;P2;SDS_P1;SDS_P2;PMS_P1;PMS_P2;Temp;Humidity;BMP_temperature;BMP_pressure;BME280_temperature;BME280_humidity;BME280_pressure;Samples;Min_cycle;Max_cycle;Signal;HPM_P1;HPM_P2
2023/06/08 00:02:24;;;;;;;0.60;0.60;;;;;;;13.25;87.51;97033.78;5082786;28;20052;-57
2023/06/08 00:04:52;;;;;;;0.60;0.60;;;;;;;13.57;87.76;97090.44;5084564;28;20142;-57
2023/06/08 00:07:21;;;;;;;0.50;0.50;;;;;;;13.69;86.67;97090.09;5082810;28;20044;-56
2023/06/08 00:09:50;;;;;;;0.50;0.50;;;;;;;13.61;87.13;97080.09;5084602;28;20044;-57
2023/06/08 00:12:18;;;;;;;0.60;0.60;;;;;;;13.66;85.92;97076.97;5072459;28;20501;-57
2023/06/08 00:14:45;;;;;;;0.60;0.60;;;;;;;13.47;86.58;97066.13;5064336;28;20087;-57
2023/06/08 00:17:13;;;;;;;0.50;0.50;;;;;;;13.30;88.60;97077.94;5065779;28;20055;-60
2023/06/08 00:19:42;;;;;;;0.60;0.60;;;;;;;13.00;88.11;97043.94;5083771;28;20084;-57
2023/06/08 00:22:12;;;;;;;0.60;0.60;;;;;;;12.89;88.85;97017.22;5082512;28;20048;-58
2023/06/08 00:24:40;;;;;;;0.60;0.60;;;;;;;13.31;88.95;97076.75;5084054;28;20048;-57
2023/06/08 00:27:08;;;;;;;0.60;0.60;;;;;;;13.42;88.80;97071.25;5082222;28;20577;-58
2023/06/08 00:29:35;;;;;;;0.60;0.60;;;;;;;13.49;88.10;97077.66;5084255;28;20101;-58
2023/06/08 00:32:02;;;;;;;0.55;0.55;;;;;;;13.50;88.10;97079.25;5083656;28;20052;-59
2023/06/08 00:34:29;;;;;;;0.60;0.60;;;;;;;13.59;87.45;97076.13;5083433;28;20562;-57
2023/06/08 00:36:56;;;;;;;0.50;0.50;;;;;;;13.60;87.29;97070.19;5083263;28;20048;-59
2023/06/08 00:39:23;;;;;;;0.60;0.60;;;;;;;13.54;87.69;97060.59;5083763;28;20089;-57
2023/06/08 00:41:49;;;;;;;0.60;0.60;;;;;;;13.46;87.37;97061.75;5083671;28;20101;-60
2023/06/08 00:44:16;;;;;;;0.60;0.60;;;;;;;13.53;86.91;97061.78;5083512;28;20804;-57
2023/06/08 00:46:43;;;;;;;0.60;0.60;;;;;;;13.53;86.86;97053.44;5084061;28;20478;-57
2023/06/08 00:49:15;;;;;;;0.60;0.60;;;;;;;13.53;86.86;97047.84;5082274;28;20076;-58
2023/06/08 00:51:43;;;;;;;0.50;0.50;;;;;;;13.35;86.69;97055.31;5083619;28;20055;-57
2023/06/08 00:54:14;;;;;;;0.60;0.60;;;;;;;13.11;86.49;97017.00;5087512;28;20047;-61
2023/06/08 00:56:42;;;;;;;0.50;0.50;;;;;;;13.41;86.92;97041.81;5088057;28;20048;-59
2023/06/08 00:59:11;;;;;;;0.60;0.60;;;;;;;12.70;87.71;96965.44;5088106;28;20051;-58
2023/06/08 01:01:40;;;;;;;0.52;0.52;;;;;;;12.99;87.97;96991.47;5086427;28;20056;-60
2023/06/08 01:04:08;;;;;;;0.60;0.60;;;;;;;13.23;86.76;97013.91;5087783;28;20422;-58
2023/06/08 01:06:44;;;;;;;0.55;0.55;;;;;;;13.30;87.35;97036.22;5084916;28;20073;-58
2023/06/08 01:09:44;;;;;;;0.60;0.60;;;;;;;13.11;88.18;97005.88;5107037;28;20043;-58
2023/06/08 01:12:33;;;;;;;0.60;0.60;;;;;;;13.32;88.35;97039.41;5108372;28;20055;-58
2023/06/08 01:15:12;;;;;;;0.50;0.50;;;;;;;13.30;87.96;97036.22;5107855;28;20063;-57
2023/06/08 01:17:48;;;;;;;0.60;0.60;;;;;;;13.21;88.59;97037.72;5097233;28;20056;-58
2023/06/08 01:20:34;;;;;;;0.60;0.60;;;;;;;13.20;87.37;97034.16;5063096;28;20055;-57
2023/06/08 01:23:10;;;;;;;0.60;0.60;;;;;;;13.18;88.17;97039.28;5066931;28;20052;-60
2023/06/08 01:25:39;;;;;;;0.52;0.52;;;;;;;12.94;89.53;97028.78;5065531;28;20155;-57
2023/06/08 01:28:12;;;;;;;0.52;0.52;;;;;;;12.97;89.69;97021.63;5066666;28;20052;-57
2023/06/08 01:30:49;;;;;;;0.57;0.57;;;;;;;12.93;90.24;97035.50;5066959;28;20045;-58
2023/06/08 01:33:18;;;;;;;0.60;0.60;;;;;;;12.88;90.14;97024.75;5066315;28;20048;-60
2023/06/08 01:36:07;;;;;;;0.50;0.50;;;;;;;12.95;89.43;97019.25;5066401;28;20052;-58
2023/06/08 01:38:46;;;;;;;0.55;0.55;;;;;;;12.85;89.63;97011.59;5066578;28;20503;-59
2023/06/08 01:41:20;;;;;;;0.50;0.50;;;;;;;12.70;90.72;97012.69;5066857;28;20049;-57
2023/06/08 01:43:50;;;;;;;0.57;0.57;;;;;;;12.81;89.73;97016.34;5066747;28;20044;-59
2023/06/08 01:46:20;;;;;;;0.50;0.50;;;;;;;12.80;89.41;97031.44;5066168;28;20610;-58
2023/06/08 01:48:48;;;;;;;0.52;0.52;;;;;;;12.78;89.66;97019.91;5065316;28;20131;-57
2023/06/08 01:51:16;;;;;;;0.50;0.50;;;;;;;12.70;89.27;97026.59;5065910;28;20548;-57
2023/06/08 01:53:43;;;;;;;0.50;0.50;;;;;;;12.65;90.50;97029.72;5066465;28;20054;-58
2023/06/08 01:56:10;;;;;;;0.60;0.60;;;;;;;12.42;92.31;97012.47;5064684;28;20056;-57
2023/06/08 01:58:37;;;;;;;0.50;0.50;;;;;;;12.51;92.54;97012.94;5064532;28;20067;-60
2023/06/08 02:01:03;;;;;;;0.60;0.60;;;;;;;12.65;90.33;97015.81;5065982;28;20053;-57
2023/06/08 02:03:30;;;;;;;0.50;0.50;;;;;;;12.65;90.49;97026.13;5065914;28;20060;-58
2023/06/08 02:05:57;;;;;;;0.50;0.50;;;;;;;12.67;89.51;97013.47;5065807;28;20223;-57
2023/06/08 02:08:23;;;;;;;0.50;0.50;;;;;;;12.63;89.66;97023.75;5066427;28;20053;-58
2023/06/08 02:10:50;;;;;;;0.50;0.50;;;;;;;12.14;90.16;96967.72;5066022;28;20061;-58
2023/06/08 02:13:17;;;;;;;0.50;0.50;;;;;;;12.41;92.56;97021.97;5064700;28;20132;-58
2023/06/08 02:15:43;;;;;;;0.50;0.50;;;;;;;12.48;92.33;97016.47;5065967;28;20055;-57
2023/06/08 02:18:11;;;;;;;0.50;0.50;;;;;;;12.47;93.12;97014.84;5084624;28;20039;-57
2023/06/08 02:20:37;;;;;;;0.50;0.50;;;;;;;12.57;92.75;97016.94;5105993;28;20043;-57
2023/06/08 02:23:04;;;;;;;0.60;0.60;;;;;;;12.68;91.69;97009.50;5104714;28;20514;-58
2023/06/08 02:25:31;;;;;;;0.60;0.60;;;;;;;12.23;91.06;96931.31;5105804;28;20055;-58
2023/06/08 02:27:57;;;;;;;0.60;0.60;;;;;;;12.76;90.80;97007.56;5105909;28;20077;-58
2023/06/08 02:30:25;;;;;;;0.60;0.60;;;;;;;12.56;90.82;96995.09;5105493;28;20102;-60
2023/06/08 02:32:53;;;;;;;0.60;0.60;;;;;;;12.58;92.40;97004.66;5105505;27;20043;-57
2023/06/08 02:35:20;;;;;;;0.57;0.57;;;;;;;12.63;92.49;97001.50;5103710;28;20044;-58
2023/06/08 02:37:46;;;;;;;0.50;0.50;;;;;;;12.54;91.52;97025.25;5105575;28;20071;-57
2023/06/08 02:40:13;;;;;;;0.60;0.60;;;;;;;12.68;90.97;97015.06;5106154;28;20054;-57
2023/06/08 02:42:40;;;;;;;0.60;0.60;;;;;;;12.65;90.69;97010.28;5104667;28;20134;-59
2023/06/08 02:45:07;;;;;;;0.57;0.57;;;;;;;12.69;90.54;97010.31;5106339;28;20052;-61
2023/06/08 02:47:34;;;;;;;0.52;0.52;;;;;;;12.45;91.27;96989.47;5104678;28;20055;-58
2023/06/08 02:50:01;;;;;;;0.50;0.50;;;;;;;12.70;90.18;97023.81;5106008;28;20047;-58
2023/06/08 02:52:28;;;;;;;0.50;0.50;;;;;;;12.52;90.75;97027.63;5105142;28;20067;-58
2023/06/08 02:54:54;;;;;;;0.60;0.60;;;;;;;12.48;91.62;97019.25;5105862;28;20057;-58
2023/06/08 02:57:21;;;;;;;0.50;0.50;;;;;;;12.55;91.05;97021.31;5075572;28;20061;-57
2023/06/08 02:59:47;;;;;;;0.57;0.57;;;;;;;12.29;91.14;96977.81;5065347;28;20052;-59
2023/06/08 03:02:14;;;;;;;0.60;0.60;;;;;;;12.61;90.58;97022.53;5064691;28;20048;-57
2023/06/08 03:04:43;;;;;;;0.60;0.60;;;;;;;12.18;91.47;96974.13;5080343;28;20056;-58
2023/06/08 03:07:15;;;;;;;0.50;0.50;;;;;;;12.64;90.36;97024.56;5064857;28;20045;-58
2023/06/08 03:09:42;;;;;;;0.50;0.50;;;;;;;12.60;91.74;97007.84;5065017;28;20048;-61
2023/06/08 03:12:12;;;;;;;0.50;0.50;;;;;;;12.60;92.26;97024.50;5064615;28;20104;-57
2023/06/08 03:14:40;;;;;;;0.50;0.50;;;;;;;12.77;89.80;97026.63;5064856;28;20286;-57
2023/06/08 03:17:07;;;;;;;0.50;0.50;;;;;;;12.79;89.94;97031.81;5064462;28;20233;-57
2023/06/08 03:19:34;;;;;;;0.50;0.50;;;;;;;12.78;90.32;97027.44;5064980;28;20048;-58
2023/06/08 03:22:04;;;;;;;0.60;0.60;;;;;;;12.81;89.63;97016.34;5063306;28;20060;-57
2023/06/08 03:24:32;;;;;;;0.52;0.52;;;;;;;12.93;89.79;97032.72;5064915;28;20463;-57
2023/06/08 03:27:01;;;;;;;0.50;0.50;;;;;;;12.91;89.76;97029.56;5064096;28;20055;-58
2023/06/08 03:29:29;;;;;;;0.60;0.60;;;;;;;13.09;87.98;97030.50;5064763;28;20139;-59
2023/06/08 03:31:56;;;;;;;0.52;0.52;;;;;;;13.15;88.24;97028.94;5021462;28;20045;-57
2023/06/08 03:34:25;;;;;;;0.50;0.50;;;;;;;13.17;87.82;97037.69;5063688;28;20090;-58
2023/06/08 03:36:53;;;;;;;0.60;0.60;;;;;;;12.67;88.22;96940.41;5063858;28;20044;-58
2023/06/08 03:39:20;;;;;;;0.50;0.50;;;;;;;13.29;87.55;97050.50;5064529;28;20526;-58
2023/06/08 03:41:47;;;;;;;0.50;0.50;;;;;;;13.25;86.86;97033.78;5064026;28;20110;-57
2023/06/08 03:44:14;;;;;;;0.60;0.60;;;;;;;13.24;86.59;97034.97;5064631;28;20139;-58
2023/06/08 03:46:41;;;;;;;0.60;0.60;;;;;;;13.40;86.89;97049.38;5063980;28;20412;-58
2023/06/08 03:49:07;;;;;;;0.60;0.60;;;;;;;13.58;86.39;97053.06;5064295;28;20060;-58
2023/06/08 03:51:35;;;;;;;0.60;0.60;;;;;;;13.65;86.60;97038.38;5063409;28;20045;-58
2023/06/08 03:54:02;;;;;;;0.60;0.60;;;;;;;13.73;86.30;97053.94;5064320;28;20537;-60
2023/06/08 03:56:29;;;;;;;0.60;0.60;;;;;;;13.86;85.78;97054.38;5064085;28;20048;-57
2023/06/08 03:58:56;;;;;;;0.60;0.60;;;;;;;13.76;85.46;97008.59;5064405;28;20055;-58
2023/06/08 04:01:23;;;;;;;0.60;0.60;;;;;;;14.16;84.92;97060.47;5064169;28;20511;-60
2023/06/08 04:03:50;;;;;;;0.60;0.60;;;;;;;14.31;84.09;97059.34;5064548;28;20063;-57
2023/06/08 04:06:18;;;;;;;0.60;0.60;;;;;;;14.45;83.69;97053.78;5063480;28;20080;-58
2023/06/08 04:08:45;;;;;;;0.60;0.60;;;;;;;14.58;82.06;97055.84;5062996;28;20122;-59
2023/06/08 04:11:12;;;;;;;0.70;0.70;;;;;;;14.74;81.62;97058.22;5062293;28;20073;-59
2023/06/08 04:13:40;;;;;;;0.60;0.60;;;;;;;14.75;80.41;97040.31;5063935;28;20503;-59
2023/06/08 04:16:09;;;;;;;0.60;0.60;;;;;;;14.92;79.95;97054.25;5063571;28;20720;-57
2023/06/08 04:18:39;;;;;;;0.70;0.70;;;;;;;15.05;79.70;97057.44;5063808;28;20139;-59
2023/06/08 04:21:07;;;;;;;0.63;0.63;;;;;;;15.17;78.84;97055.03;5063399;28;20541;-60
2023/06/08 04:23:35;;;;;;;0.60;0.60;;;;;;;15.25;79.00;97078.19;5062319;28;20049;-58
2023/06/08 04:26:07;;;;;;;0.70;0.70;;;;;;;15.38;78.06;97065.41;5061924;28;20053;-58
2023/06/08 04:28:34;;;;;;;0.60;0.60;;;;;;;15.45;78.27;97079.38;5062504;28;20063;-58
2023/06/08 04:31:01;;;;;;;0.60;0.60;;;;;;;15.47;77.42;97063.03;5063514;28;20056;-57
2023/06/08 04:33:28;;;;;;;0.65;0.65;;;;;;;15.72;77.55;97069.34;5062496;28;20079;-58
2023/06/08 04:35:56;;;;;;;0.70;0.70;;;;;;;15.81;76.96;97072.50;5063269;28;20083;-57
2023/06/08 04:38:23;;;;;;;0.70;0.70;;;;;;;15.95;76.37;97066.88;5063366;28;20534;-57
2023/06/08 04:40:54;;;;;;;0.70;0.70;;;;;;;16.08;76.59;97065.22;5063414;28;20059;-58
2023/06/08 04:43:22;;;;;;;0.63;0.63;;;;;;;16.19;76.69;97065.97;5063665;28;20349;-58
2023/06/08 04:45:57;;;;;;;0.70;0.70;;;;;;;16.39;76.04;97069.09;5063512;28;20056;-59
2023/06/08 04:48:28;;;;;;;0.70;0.70;;;;;;;16.52;75.80;97062.63;5063354;28;20055;-59
2023/06/08 04:50:59;;;;;;;0.70;0.70;;;;;;;16.38;75.19;97000.38;5062940;28;20053;-57
2023/06/08 04:53:33;;;;;;;0.70;0.70;;;;;;;16.77;74.31;97058.88;5061105;28;20114;-61
2023/06/08 04:56:01;;;;;;;;;;;;;;;17.01;73.38;97055.13;5062551;28;20529;-62
2023/06/08 04:58:29;;;;;;;0.80;0.80;;;;;;;16.87;73.79;97055.19;5072313;28;19935;-60
2023/06/08 05:00:57;;;;;;;0.70;0.70;;;;;;;17.00;72.80;97036.72;5074852;28;20052;-60
2023/06/08 05:03:25;;;;;;;0.70;0.70;;;;;;;17.24;72.36;97052.50;5061229;28;20561;-59
2023/06/08 05:05:52;;;;;;;0.80;0.80;;;;;;;17.41;72.13;97045.94;5063483;28;20052;-59
2023/06/08 05:08:19;;;;;;;0.80;0.80;;;;;;;17.14;72.34;96994.59;5078037;28;20133;-64
2023/06/08 05:10:46;;;;;;;0.80;0.80;;;;;;;17.65;72.06;97050.53;5063068;28;20127;-59
2023/06/08 05:13:13;;;;;;;0.80;0.80;;;;;;;17.83;70.20;97060.34;5061378;28;20053;-59
2023/06/08 05:15:39;;;;;;;0.80;0.80;;;;;;;17.93;69.06;97050.22;5063191;28;20079;-62
2023/06/08 05:18:06;;;;;;;0.80;0.80;;;;;;;17.57;69.42;97001.41;5064798;28;20475;-58
2023/06/08 05:20:33;;;;;;;0.77;0.77;;;;;;;17.97;69.85;97053.78;5083666;28;20116;-58
2023/06/08 05:23:00;;;;;;;0.80;0.80;;;;;;;17.98;69.38;97024.53;5083365;28;20052;-63
2023/06/08 05:25:26;;;;;;;0.63;0.63;;;;;;;18.27;68.59;97053.81;5083438;28;20499;-63
2023/06/08 05:27:53;;;;;;;0.80;0.80;;;;;;;18.41;68.24;97053.66;5082960;28;20056;-64
2023/06/08 05:30:20;;;;;;;0.70;0.70;;;;;;;18.58;67.73;97046.19;5083112;28;20048;-59
2023/06/08 05:32:46;;;;;;;0.77;0.77;;;;;;;18.26;66.35;96979.31;5080992;28;20044;-63
2023/06/08 05:35:13;;;;;;;0.80;0.80;;;;;;;18.53;66.64;96999.78;5064769;28;20147;-62
2023/06/08 05:37:40;;;;;;;0.80;0.80;;;;;;;18.93;65.99;97046.47;5082717;28;20058;-64
2023/06/08 05:40:07;;;;;;;0.80;0.80;;;;;;;18.46;65.41;96994.28;5070503;28;20052;-68
2023/06/08 05:42:35;;;;;;;0.80;0.80;;;;;;;17.17;65.72;96767.84;5081109;28;20083;-66
2023/06/08 05:45:01;;;;;;;0.80;0.80;;;;;;;18.53;65.76;96966.13;5066795;28;20540;-61
2023/06/08 05:47:28;;;;;;;0.80;0.80;;;;;;;18.72;65.16;96982.25;5066061;28;20048;-62
2023/06/08 05:50:00;;;;;;;0.90;0.90;;;;;;;18.82;64.25;96972.06;5086379;28;20514;-67
2023/06/08 05:52:27;;;;;;;0.80;0.80;;;;;;;18.85;64.36;96960.78;5085984;28;20535;-66
2023/06/08 05:54:53;;;;;;;0.80;0.80;;;;;;;19.29;63.39;97015.81;5082292;28;20123;-62
2023/06/08 05:57:20;;;;;;;0.80;0.80;;;;;;;19.32;64.75;97041.03;5065806;28;20052;-63
2023/06/08 05:59:47;;;;;;;0.80;0.80;;;;;;;18.26;68.63;97024.16;5074972;28;20054;-63
2023/06/08 06:02:13;;;;;;;0.80;0.80;;;;;;;18.64;68.34;97045.31;5085489;28;20048;-59
2023/06/08 06:04:41;;;;;;;0.80;0.80;;;;;;;18.38;67.57;96970.38;5075176;28;20491;-62
2023/06/08 06:07:08;;;;;;;0.70;0.70;;;;;;;18.86;67.45;97021.31;5048405;28;20044;-60
2023/06/08 06:09:35;;;;;;;0.80;0.80;;;;;;;18.84;68.45;97032.16;5065628;28;20349;-61
2023/06/08 06:12:02;;;;;;;0.85;0.85;;;;;;;18.84;67.60;96958.41;5058103;28;20061;-63
2023/06/08 06:14:38;;;;;;;0.73;0.73;;;;;;;19.71;66.18;97048.78;5053599;28;20052;-66
2023/06/08 06:17:05;;;;;;;0.80;0.80;;;;;;;19.90;64.88;97052.84;5062978;28;20572;-63
2023/06/08 06:19:38;;;;;;;0.90;0.90;;;;;;;19.96;64.60;97042.66;5049905;28;20074;-65
2023/06/08 06:22:09;;;;;;;0.80;0.80;;;;;;;19.71;65.55;97031.91;5054343;28;20048;-63
2023/06/08 06:24:37;;;;;;;0.82;0.82;;;;;;;19.07;68.63;97040.63;5059488;28;20044;-64
2023/06/08 06:27:05;;;;;;;0.80;0.80;;;;;;;19.25;68.11;97060.78;5044120;28;20160;-63
2023/06/08 06:29:32;;;;;;;0.80;0.80;;;;;;;19.67;67.13;97038.81;5064438;28;20064;-59
2023/06/08 06:31:59;;;;;;;0.82;0.82;;;;;;;20.15;65.74;97036.28;5042827;28;20320;-61
2023/06/08 06:34:26;;;;;;;0.80;0.80;;;;;;;20.56;63.01;97033.78;5057639;28;20081;-61
2023/06/08 06:36:53;;;;;;;0.80;0.80;;;;;;;20.30;63.72;97041.19;5063892;28;20090;-63
2023/06/08 06:39:20;;;;;;;0.80;0.80;;;;;;;20.08;65.09;97028.75;5056886;28;20136;-64
2023/06/08 06:41:46;;;;;;;0.80;0.80;;;;;;;20.47;63.63;97030.78;5052533;28;20249;-66
2023/06/08 06:44:13;;;;;;;0.90;0.90;;;;;;;20.24;63.45;96999.91;5053548;28;20500;-63
2023/06/08 06:46:40;;;;;;;0.80;0.80;;;;;;;20.88;62.64;97017.75;5062863;28;20064;-65
2023/06/08 06:49:07;;;;;;;0.85;0.85;;;;;;;21.17;60.62;97028.34;5059605;28;20049;-61
2023/06/08 06:51:36;;;;;;;0.80;0.80;;;;;;;21.07;60.53;96965.41;5055191;28;20057;-64
2023/06/08 06:54:03;;;;;;;1.00;1.00;;;;;;;21.81;59.46;97015.00;5054597;28;20060;-63
2023/06/08 06:56:31;;;;;;;0.88;0.88;;;;;;;22.00;58.69;97025.31;5034611;28;20566;-64
2023/06/08 06:58:57;;;;;;;0.98;0.98;;;;;;;22.19;57.62;97004.63;5051986;28;20052;-64
2023/06/08 07:01:24;;;;;;;0.90;0.90;;;;;;;22.24;56.26;96967.38;5062406;28;20798;-69
2023/06/08 07:03:52;;;;;;;0.95;0.95;;;;;;;22.78;55.28;97006.13;5059370;28;20155;-63
2023/06/08 07:06:23;;;;;;;1.00;1.00;;;;;;;22.42;54.57;96956.38;5043144;28;20053;-64
2023/06/08 07:08:50;;;;;;;1.00;1.00;;;;;;;22.67;55.20;96977.41;5056360;28;20550;-62
2023/06/08 07:11:17;;;;;;;1.00;1.00;;;;;;;21.71;55.00;96953.22;5061293;28;20253;-64
2023/06/08 07:13:43;;;;;;;0.90;0.90;;;;;;;21.97;54.87;96969.81;5061085;28;20048;-60
2023/06/08 07:16:10;;;;;;;0.90;0.90;;;;;;;20.90;57.26;96907.47;5063395;28;20059;-60
2023/06/08 07:18:37;;;;;;;0.90;0.90;;;;;;;20.63;56.48;96819.69;5049546;28;20056;-66
2023/06/08 07:21:04;;;;;;;0.80;0.80;;;;;;;21.86;56.62;97014.44;5046111;28;20474;-62
2023/06/08 07:23:31;;;;;;;0.90;0.90;;;;;;;22.01;56.53;97015.66;5046463;28;20568;-65
2023/06/08 07:26:18;;;;;;;0.98;0.98;;;;;;;22.15;56.40;97014.44;5049424;28;20041;-63
2023/06/08 07:28:54;;;;;;;1.05;1.05;;;;;;;22.33;54.64;97009.06;5051612;28;20049;-61
2023/06/08 07:31:22;;;;;;;0.93;0.93;;;;;;;22.39;54.41;97007.28;5063456;28;20045;-65
2023/06/08 07:33:50;;;;;;;0.90;0.90;;;;;;;22.32;54.95;97008.28;5056295;28;20129;-61
2023/06/08 07:36:17;;;;;;;0.95;0.95;;;;;;;22.29;54.00;96958.38;5045928;28;20072;-62
2023/06/08 07:38:44;;;;;;;0.90;0.90;;;;;;;22.20;55.00;97006.22;5053260;28;20054;-62
2023/06/08 07:41:11;;;;;;;1.10;1.10;;;;;;;22.58;55.52;97005.53;5059629;28;20051;-60
2023/06/08 07:43:39;;;;;;;1.00;1.00;;;;;;;22.83;55.00;96997.84;5060653;28;20048;-61
2023/06/08 07:46:06;;;;;;;1.08;1.08;;;;;;;23.19;54.50;96997.50;5057709;28;20049;-60
2023/06/08 07:48:33;;;;;;;1.08;1.08;;;;;;;21.99;52.57;96792.44;5044161;28;20570;-69
2023/06/08 07:51:00;;;;;;;1.00;1.00;;;;;;;22.51;54.08;96954.91;5050456;28;20060;-60
2023/06/08 07:53:37;;;;;;;1.00;1.00;;;;;;;23.15;54.23;96996.81;5056261;28;20665;-63
2023/06/08 07:56:05;;;;;;;1.10;1.10;;;;;;;22.41;54.40;96991.47;5062020;28;20428;-63
2023/06/08 07:58:32;;;;;;;1.00;1.00;;;;;;;22.48;56.89;96998.94;5054559;28;20041;-61
2023/06/08 08:01:00;;;;;;;1.05;1.05;;;;;;;22.80;54.60;96997.97;5049532;28;20049;-62
2023/06/08 08:03:28;;;;;;;1.00;1.00;;;;;;;23.07;53.95;96993.44;5041301;28;20063;-64
2023/06/08 08:05:55;;;;;;;1.00;1.00;;;;;;;23.05;53.97;96998.75;5042064;28;20486;-62
2023/06/08 08:08:22;;;;;;;0.90;0.90;;;;;;;22.48;54.92;96973.50;5042164;28;20041;-64
2023/06/08 08:10:49;;;;;;;0.80;0.80;;;;;;;21.26;57.78;96930.69;5043336;28;20541;-65
2023/06/08 08:13:16;;;;;;;1.00;1.00;;;;;;;21.17;58.05;96904.38;5043741;28;20550;-64
2023/06/08 08:15:42;;;;;;;0.88;0.88;;;;;;;21.89;56.47;96939.44;5043186;28;20045;-63
2023/06/08 08:18:09;;;;;;;0.95;0.95;;;;;;;21.39;56.97;96883.63;5050288;28;20329;-66
2023/06/08 08:20:36;;;;;;;1.10;1.10;;;;;;;23.01;55.95;96991.63;5060017;28;20072;-66
2023/06/08 08:23:03;;;;;;;1.05;1.05;;;;;;;21.92;55.95;96966.75;5055873;28;20044;-61
2023/06/08 08:25:30;;;;;;;1.02;1.02;;;;;;;21.38;55.69;96800.34;5048836;28;20054;-68
2023/06/08 08:27:57;;;;;;;1.10;1.10;;;;;;;22.44;55.06;96941.78;5060769;28;20060;-64
2023/06/08 08:30:24;;;;;;;1.10;1.10;;;;;;;22.87;54.98;96992.91;5051888;28;20134;-64
2023/06/08 08:32:51;;;;;;;1.00;1.00;;;;;;;23.38;55.13;96973.84;5054278;28;20135;-68
2023/06/08 08:35:18;;;;;;;1.05;1.05;;;;;;;23.55;53.44;96976.06;5052815;28;20107;-61
2023/06/08 08:37:45;;;;;;;1.00;1.00;;;;;;;23.55;53.67;96980.94;5076051;28;20598;-72
2023/06/08 08:40:13;;;;;;;1.08;1.08;;;;;;;22.35;55.25;96941.69;5050998;28;20180;-62
2023/06/08 08:42:51;;;;;;;1.10;1.10;;;;;;;22.22;56.38;96862.63;5050011;28;20060;-63
2023/06/08 08:45:21;;;;;;;0.93;0.93;;;;;;;22.59;55.91;96953.47;5059064;28;20447;-66
2023/06/08 08:47:53;;;;;;;0.90;0.90;;;;;;;22.66;57.33;96982.28;5052753;28;20443;-63
2023/06/08 08:50:20;;;;;;;1.10;1.10;;;;;;;22.36;54.34;96856.53;5060552;28;20064;-61
2023/06/08 08:52:53;;;;;;;1.10;1.10;;;;;;;22.39;54.55;96821.78;5061809;28;20055;-67
2023/06/08 08:55:27;;;;;;;1.10;1.10;;;;;;;23.40;54.00;96935.41;5056296;28;20065;-66
2023/06/08 08:58:02;;;;;;;1.10;1.10;;;;;;;23.71;53.14;96958.16;5054818;28;20059;-68
2023/06/08 09:00:33;;;;;;;1.00;1.00;;;;;;;23.15;54.09;96974.22;5052268;28;20101;-69
2023/06/08 09:03:02;;;;;;;1.10;1.10;;;;;;;23.05;53.88;96913.19;5058775;28;20470;-72
2023/06/08 09:05:29;;;;;;;1.00;1.00;;;;;;;23.77;52.38;96964.78;5058248;28;20052;-70
2023/06/08 09:07:55;;;;;;;0.90;0.90;;;;;;;23.19;55.10;96963.59;5054292;28;20049;-74
2023/06/08 09:10:25;;;;;;;1.10;1.10;;;;;;;23.57;53.24;96945.28;5046039;28;20996;-63
2023/06/08 09:12:59;;;;;;;1.00;1.00;;;;;;;23.85;51.72;96937.81;5054600;28;20376;-61
2023/06/08 09:15:27;;;;;;;1.17;1.17;;;;;;;24.15;51.52;96958.97;5051324;28;20063;-67
2023/06/08 09:17:55;;;;;;;1.20;1.20;;;;;;;24.37;51.79;96940.72;5067001;28;20381;-63
2023/06/08 09:20:40;;;;;;;1.10;1.10;;;;;;;24.43;51.35;96952.22;5062969;28;20052;-63
2023/06/08 09:23:20;;;;;;;1.20;1.20;;;;;;;23.37;52.89;96811.13;5045732;28;20045;-62
2023/06/08 09:25:47;;;;;;;1.10;1.10;;;;;;;24.49;51.49;96970.97;5050836;28;20051;-63
2023/06/08 09:28:22;;;;;;;1.30;1.30;;;;;;;23.47;51.58;96874.97;5065702;28;20127;-63
2023/06/08 09:30:49;;;;;;;1.00;1.00;;;;;;;23.37;53.52;96958.94;5060498;28;20063;-68
2023/06/08 09:33:17;;;;;;;1.10;1.10;;;;;;;23.77;51.94;96897.66;5061861;28;20048;-72
2023/06/08 09:35:44;;;;;;;1.10;1.10;;;;;;;24.54;51.24;96973.22;5060696;28;21031;-67
2023/06/08 09:38:21;;;;;;;1.20;1.20;;;;;;;24.98;49.79;96939.88;5061700;28;20504;-65
2023/06/08 09:40:49;;;;;;;1.10;1.10;;;;;;;24.16;50.14;96884.09;5060307;28;20041;-64
2023/06/08 09:43:33;;;;;;;1.20;1.20;;;;;;;24.55;51.07;96940.78;5047797;28;20045;-62
2023/06/08 09:46:00;;;;;;;1.25;1.25;;;;;;;23.74;50.11;96762.03;5062348;28;20258;-61
2023/06/08 09:48:26;;;;;;;1.13;1.13;;;;;;;24.84;49.32;96929.94;5061179;28;20053;-61
2023/06/08 09:51:00;;;;;;;1.30;1.30;;;;;;;24.60;48.70;96812.69;5050239;28;20048;-64
2023/06/08 09:53:28;;;;;;;;;;;;;;;25.92;48.33;96928.50;5047166;28;20056;-62
2023/06/08 09:55:59;;;;;;;1.40;1.40;;;;;;;26.05;48.29;96938.47;5053324;28;19958;-65
2023/06/08 09:58:29;;;;;;;1.40;1.40;;;;;;;26.01;48.61;96920.00;5045086;28;20080;-61
2023/06/08 10:01:04;;;;;;;1.25;1.25;;;;;;;25.29;48.37;96864.81;5059865;28;20131;-64
2023/06/08 10:03:38;;;;;;;1.60;1.60;;;;;;;25.50;48.49;96913.41;5065044;28;20503;-63
2023/06/08 10:06:08;;;;;;;1.30;1.30;;;;;;;25.84;47.70;96898.88;5066125;28;20064;-64
2023/06/08 10:08:38;;;;;;;1.40;1.40;;;;;;;23.47;48.76;96532.84;5066161;28;20227;-64
2023/06/08 10:11:07;;;;;;;1.30;1.30;;;;;;;24.84;49.97;96907.25;5065458;28;20059;-64
2023/06/08 10:13:34;;;;;;;1.10;1.10;;;;;;;24.83;51.40;96900.00;5066010;28;20045;-61
2023/06/08 10:16:02;;;;;;;1.40;1.40;;;;;;;25.24;50.23;96929.88;5062795;28;20508;-66
2023/06/08 10:18:30;;;;;;;1.15;1.15;;;;;;;25.81;48.23;96891.31;5045549;28;20084;-61
2023/06/08 10:20:57;;;;;;;1.42;1.42;;;;;;;26.22;48.02;96902.00;5045169;28;20412;-64
2023/06/08 10:23:25;;;;;;;1.40;1.40;;;;;;;26.30;47.11;96906.06;5045332;28;20049;-60
2023/06/08 10:25:53;;;;;;;1.20;1.20;;;;;;;25.16;49.52;96892.53;5045229;28;20443;-63
2023/06/08 10:28:20;;;;;;;1.20;1.20;;;;;;;25.90;48.71;96894.13;5045259;28;20055;-60
2023/06/08 10:30:47;;;;;;;1.30;1.30;;;;;;;26.25;48.28;96901.03;5043744;28;20382;-64
2023/06/08 10:33:24;;;;;;;1.20;1.20;;;;;;;26.08;49.30;96891.31;5045587;28;20436;-64
2023/06/08 10:36:09;;;;;;;1.30;1.30;;;;;;;26.29;48.88;96878.91;5043724;28;20140;-63
2023/06/08 10:38:55;;;;;;;1.40;1.40;;;;;;;25.81;48.66;96882.78;5043858;28;20136;-65
2023/06/08 10:41:45;;;;;;;1.27;1.27;;;;;;;26.09;48.69;96881.50;5045079;28;20052;-61
2023/06/08 10:44:26;;;;;;;1.45;1.45;;;;;;;26.79;47.43;96872.44;5045148;28;20513;-64
2023/06/08 10:47:11;;;;;;;1.50;1.50;;;;;;;27.32;46.17;96859.16;5044785;28;20589;-61
2023/06/08 10:49:44;;;;;;;1.33;1.33;;;;;;;26.52;46.64;96864.03;5045187;28;20140;-64
2023/06/08 10:52:19;;;;;;;1.70;1.70;;;;;;;26.46;46.52;96831.84;5042848;28;20122;-60
2023/06/08 10:54:51;;;;;;;1.20;1.20;;;;;;;27.02;45.75;96851.75;5045126;28;20126;-64
2023/06/08 10:57:39;;;;;;;1.48;1.48;;;;;;;26.74;47.32;96853.19;5043007;28;20067;-64
2023/06/08 11:00:25;;;;;;;1.58;1.58;;;;;;;27.46;45.64;96847.03;5045251;28;20079;-60
2023/06/08 11:02:57;;;;;;;1.38;1.38;;;;;;;27.87;44.74;96834.63;5043038;28;20049;-60
2023/06/08 11:05:28;;;;;;;1.67;1.67;;;;;;;27.66;45.23;96832.94;5044551;28;20049;-61
2023/06/08 11:07:56;;;;;;;1.35;1.35;;;;;;;25.92;47.11;96834.84;5054544;28;20076;-63
2023/06/08 11:10:23;;;;;;;1.30;1.30;;;;;;;25.75;49.14;96839.28;5050052;28;20041;-63
2023/06/08 11:12:50;;;;;;;1.30;1.30;;;;;;;26.10;48.89;96797.88;5057195;28;20051;-63
2023/06/08 11:15:18;;;;;;;1.70;1.70;;;;;;;25.90;48.55;96817.47;5052762;28;20052;-60
2023/06/08 11:17:58;;;;;;;1.50;1.50;;;;;;;26.28;48.20;96831.91;5042847;28;20057;-65
2023/06/08 11:20:26;;;;;;;1.20;1.20;;;;;;;25.61;49.34;96766.94;5042440;28;20060;-60
2023/06/08 11:22:53;;;;;;;1.30;1.30;;;;;;;26.35;48.02;96780.44;5045229;28;20049;-68
2023/06/08 11:25:21;;;;;;;1.30;1.30;;;;;;;26.95;47.39;96805.84;5062008;28;20064;-63
2023/06/08 11:27:55;;;;;;;1.38;1.38;;;;;;;26.65;46.07;96777.28;5058632;28;20138;-63
2023/06/08 11:30:26;;;;;;;1.20;1.20;;;;;;;25.65;48.09;96772.47;5047187;28;20084;-62
2023/06/08 11:32:56;;;;;;;1.40;1.40;;;;;;;26.60;46.48;96819.78;5054721;28;20051;-61
2023/06/08 11:35:23;;;;;;;1.45;1.45;;;;;;;26.06;45.89;96729.13;5042371;28;20053;-64
2023/06/08 11:37:59;;;;;;;1.42;1.42;;;;;;;27.14;45.92;96807.28;5044461;28;20060;-62
2023/06/08 11:40:27;;;;;;;1.45;1.45;;;;;;;26.71;46.48;96808.69;5061741;28;20052;-66
2023/06/08 11:42:55;;;;;;;1.60;1.60;;;;;;;26.87;45.67;96785.53;5063190;28;20048;-62
2023/06/08 11:45:23;;;;;;;1.50;1.50;;;;;;;27.17;46.32;96801.44;5062630;28;20052;-65